Time;durP1;ratioP1;P1;durP2;ratioP2;P2;SDS_P1;SDS_P2;PMS_P1;PMS_P2;Temp;Humidity;BMP_temperature;BMP_pressure;BME280_temperature;BME280_humidity;BME280_pressure;Samples;Min_cycle;Max_cycle;Signal;HPM_P1;HPM_P2
2023/06/08 00:00:50;;;;;;;;;14.60;14.60;;;;;23.90;40.02;100962.03;2088886;28;46596;-63
2023/06/08 00:01:52;;;;;;;;;15.00;15.00;;;;;23.86;39.75;100955.94;2088375;28;46388;-61
2023/06/08 00:02:55;;;;;;;;;13.80;13.80;;;;;23.85;40.10;100959.63;2089187;28;46368;-63
2023/06/08 00:03:56;;;;;;;;;15.60;15.60;;;;;23.85;39.94;100958.78;2089586;28;46605;-65
2023/06/08 00:04:57;;;;;;;;;14.00;14.00;;;;;23.82;39.81;100957.16;2089575;28;45755;-63
2023/06/08 00:05:59;;;;;;;;;13.80;13.80;;;;;23.80;40.06;100950.13;2092031;28;46473;-65
2023/06/08 00:07:03;;;;;;;;;15.60;14.80;;;;;23.77;40.00;100954.81;2090129;28;46386;-62
2023/06/08 00:08:03;;;;;;;;;14.80;14.80;;;;;23.75;39.87;100953.16;2089051;28;46573;-63
2023/06/08 00:09:06;;;;;;;;;20.25;20.25;;;;;23.74;40.57;100952.28;2083533;28;46315;-63
2023/06/08 00:10:09;;;;;;;;;15.00;14.60;;;;;23.72;40.13;100947.97;2088713;28;46209;-62
2023/06/08 00:11:10;;;;;;;;;19.20;18.60;;;;;23.71;40.08;100947.09;2090544;28;46393;-64
2023/06/08 00:12:11;;;;;;;;;12.40;12.40;;;;;23.70;40.25;100942.66;2091763;28;47443;-63
2023/06/08 00:13:13;;;;;;;;;26.25;24.25;;;;;23.69;40.18;100946.34;2095776;28;46447;-63
2023/06/08 00:14:13;;;;;;;;;16.40;16.40;;;;;23.67;40.28;100948.31;2094460;28;46831;-62
2023/06/08 00:15:13;;;;;;;;;16.75;16.75;;;;;23.66;40.38;100943.00;2093572;28;46425;-63
2023/06/08 00:16:14;;;;;;;;;18.75;18.25;;;;;23.65;40.71;100942.16;2094594;28;46332;-63
2023/06/08 00:17:14;;;;;;;;;15.75;15.00;;;;;23.64;40.46;100939.56;2090727;28;46675;-63
2023/06/08 00:18:16;;;;;;;;;16.25;14.50;;;;;23.64;40.26;100939.56;2093964;28;46466;-63
2023/06/08 00:19:17;;;;;;;;;17.60;17.60;;;;;23.63;40.44;100935.97;2093383;28;46520;-64
2023/06/08 00:20:18;;;;;;;;;19.75;19.75;;;;;23.62;40.35;100936.94;2091072;28;46884;-62
2023/06/08 00:21:19;;;;;;;;;19.20;19.20;;;;;23.63;40.68;100941.41;2086932;28;45936;-62
2023/06/08 00:22:21;;;;;;;;;17.50;17.50;;;;;23.62;40.60;100933.34;2090826;28;46301;-63
2023/06/08 00:23:21;;;;;;;;;25.20;22.80;;;;;23.61;40.70;100937.91;2092764;28;46470;-61
2023/06/08 00:24:22;;;;;;;;;29.50;26.50;;;;;23.59;40.83;100934.44;2092833;28;46901;-63
2023/06/08 00:25:23;;;;;;;;;17.25;17.25;;;;;23.60;40.77;100936.19;2089765;28;45676;-63
2023/06/08 00:26:23;;;;;;;;;15.25;15.00;;;;;23.59;41.09;100936.28;2093163;28;46431;-61
2023/06/08 00:27:23;;;;;;;;;35.75;31.00;;;;;23.58;40.89;100930.00;2090422;28;46203;-62
2023/06/08 00:28:24;;;;;;;;;24.75;24.75;;;;;23.57;40.95;100932.81;2092177;28;46822;-62
2023/06/08 00:29:24;;;;;;;;;16.50;16.25;;;;;23.56;40.74;100934.66;2093279;28;45130;-62
2023/06/08 00:30:25;;;;;;;;;20.50;20.00;;;;;23.55;41.08;100930.19;2091701;28;46552;-65
2023/06/08 00:31:25;;;;;;;;;17.00;16.00;;;;;23.54;41.05;100931.19;2092945;28;46370;-63
2023/06/08 00:32:25;;;;;;;;;16.50;16.25;;;;;23.53;41.07;100923.16;2092287;28;46104;-63
2023/06/08 00:33:26;;;;;;;;;16.75;15.75;;;;;23.51;41.10;100920.59;2088624;28;45610;-63
2023/06/08 00:34:27;;;;;;;;;17.25;17.25;;;;;23.50;41.20;100924.22;2090072;28;46988;-65
2023/06/08 00:35:27;;;;;;;;;16.60;16.60;;;;;23.51;41.26;100923.28;2091923;28;46678;-62
2023/06/08 00:36:27;;;;;;;;;22.75;20.25;;;;;23.47;41.21;100919.91;2088358;28;46346;-64
2023/06/08 00:37:28;;;;;;;;;20.00;19.50;;;;;23.46;41.20;100920.88;2092491;28;46711;-63
2023/06/08 00:38:28;;;;;;;;;21.50;20.75;;;;;23.44;41.33;100922.84;2088934;28;46507;-62
2023/06/08 00:39:28;;;;;;;;;20.25;20.25;;;;;23.43;41.25;100921.13;2091305;28;46536;-63
2023/06/08 00:40:29;;;;;;;;;19.25;19.25;;;;;23.43;41.16;100925.66;2107848;27;46435;-62
2023/06/08 00:41:29;;;;;;;;;17.75;17.50;;;;;23.44;41.30;100921.97;2096212;28;46270;-63
2023/06/08 00:42:31;;;;;;;;;17.00;15.25;;;;;23.42;41.40;100918.53;2091297;28;46849;-63
2023/06/08 00:43:31;;;;;;;;;20.80;19.60;;;;;23.41;41.55;100925.78;2090569;28;46353;-63
2023/06/08 00:44:32;;;;;;;;;17.50;16.75;;;;;23.39;41.64;100911.50;2090957;28;46514;-62
2023/06/08 00:45:32;;;;;;;;;17.75;16.75;;;;;23.37;41.37;100916.13;2092304;28;46130;-62
2023/06/08 00:46:33;;;;;;;;;16.00;15.25;;;;;23.36;41.43;100918.94;2087737;28;46595;-62
2023/06/08 00:47:33;;;;;;;;;17.00;16.20;;;;;23.36;41.65;100914.41;2091466;28;46689;-63
2023/06/08 00:48:34;;;;;;;;;17.00;17.00;;;;;23.35;41.67;100912.66;2088211;28;46826;-63
2023/06/08 00:49:35;;;;;;;;;20.00;19.00;;;;;23.34;41.46;100908.22;2090435;28;46469;-64
2023/06/08 00:50:35;;;;;;;;;23.75;20.75;;;;;23.34;41.64;100910.06;2090048;28;46208;-63
2023/06/08 00:51:40;;;;;;;;;16.25;16.25;;;;;23.33;41.71;100909.22;2090742;28;46875;-65
2023/06/08 00:52:41;;;;;;;;;20.00;20.00;;;;;23.32;41.66;100910.19;2091845;28;46830;-63
2023/06/08 00:53:42;;;;;;;;;16.50;16.00;;;;;23.31;42.04;100908.47;2098928;28;46417;-63
2023/06/08 00:54:43;;;;;;;;;18.75;18.75;;;;;23.31;41.86;100907.59;2093649;28;46820;-61
2023/06/08 00:55:44;;;;;;;;;19.00;19.00;;;;;23.29;41.73;100907.72;2089992;28;46425;-61
2023/06/08 00:56:48;;;;;;;;;16.40;16.40;;;;;23.28;42.24;100905.13;2088971;28;45937;-62
2023/06/08 00:57:50;;;;;;;;;17.00;16.20;;;;;23.28;41.94;100905.13;2090696;28;46352;-63
2023/06/08 00:58:52;;;;;;;;;20.20;19.40;;;;;23.26;42.19;100907.06;2090816;28;46277;-62
2023/06/08 00:59:53;;;;;;;;;19.60;17.20;;;;;23.24;42.22;100900.88;2088090;28;46832;-63
2023/06/08 01:00:59;;;;;;;;;16.25;16.25;;;;;23.22;42.14;100901.00;2083810;28;46731;-62
2023/06/08 01:01:59;;;;;;;;;21.40;20.60;;;;;23.19;42.23;100903.91;2087343;28;46942;-62
2023/06/08 01:03:00;;;;;;;;;20.75;19.00;;;;;23.17;42.05;100895.91;2090168;28;45935;-62
2023/06/08 01:04:06;;;;;;;;;24.00;22.25;;;;;23.17;42.25;100903.16;2083873;28;45914;-64
2023/06/08 01:05:07;;;;;;;;;23.20;22.80;;;;;23.16;42.32;100904.16;2083669;28;46855;-62
2023/06/08 01:06:08;;;;;;;;;16.80;16.80;;;;;23.14;42.46;100909.69;2090380;28;46993;-63
2023/06/08 01:07:27;;;;;;;;;15.25;15.00;;;;;23.14;42.41;100901.56;2090108;28;46716;-64
2023/06/08 01:08:42;;;;;;;;;20.40;20.40;;;;;23.16;42.51;100896.03;2081998;28;46697;-63
2023/06/08 01:10:00;;;;;;;;;17.80;17.60;;;;;23.15;42.61;100900.56;2086978;28;46430;-61
2023/06/08 01:11:32;;;;;;;;;16.20;16.20;;;;;23.14;42.56;100906.09;2089356;28;46238;-62
2023/06/08 01:12:41;;;;;;;;;15.60;15.60;;;;;23.13;42.57;100907.94;2079440;28;46221;-61
2023/06/08 01:14:02;;;;;;;;;16.20;16.20;;;;;23.12;42.55;100900.81;2078950;28;46462;-63
2023/06/08 01:15:23;;;;;;;;;15.80;15.80;;;;;23.12;43.07;100899.91;2061875;28;46902;-63
2023/06/08 01:16:31;;;;;;;;;19.40;19.20;;;;;23.12;43.13;100899.91;2052096;28;46932;-64
2023/06/08 01:17:37;;;;;;;;;17.60;16.60;;;;;23.10;42.52;100905.44;2060586;28;46364;-61
2023/06/08 01:18:40;;;;;;;;;19.00;19.00;;;;;23.10;42.98;100902.72;2062238;28;46600;-62
2023/06/08 01:20:06;;;;;;;;;17.60;16.40;;;;;23.06;42.83;100901.22;2054098;28;46373;-62
2023/06/08 01:21:25;;;;;;;;;18.80;15.00;;;;;23.05;42.76;100898.63;2056091;28;46645;-62
2023/06/08 01:22:38;;;;;;;;;18.40;18.40;;;;;23.02;43.30;100901.56;2059394;28;46425;-63
2023/06/08 01:24:12;;;;;;;;;17.20;16.80;;;;;23.00;43.52;100898.97;2056823;28;46341;-62
2023/06/08 01:25:14;;;;;;;;;18.60;18.00;;;;;22.99;43.30;100893.63;2056391;28;47018;-65
2023/06/08 01:26:15;;;;;;;;;17.00;16.40;;;;;22.99;43.41;100899.91;2060287;28;46333;-62
2023/06/08 01:27:18;;;;;;;;;20.80;19.20;;;;;22.99;43.30;100899.03;2048481;28;46240;-61
2023/06/08 01:28:20;;;;;;;;;19.80;19.80;;;;;22.98;43.07;100897.31;2054725;28;46041;-63
2023/06/08 01:29:27;;;;;;;;;15.80;15.80;;;;;22.98;43.30;100902.72;2051733;28;46401;-61
2023/06/08 01:30:28;;;;;;;;;17.40;17.40;;;;;22.97;43.54;100909.13;2052111;28;46724;-62
2023/06/08 01:31:28;;;;;;;;;15.75;15.75;;;;;22.97;43.26;100906.41;2062193;28;46785;-63
2023/06/08 01:32:28;;;;;;;;;19.25;18.25;;;;;22.98;43.35;100905.44;2059035;28;46852;-64
2023/06/08 01:33:30;;;;;;;;;19.75;18.00;;;;;22.97;43.80;100906.41;2055719;28;46649;-64
2023/06/08 01:34:31;;;;;;;;;21.20;19.00;;;;;22.95;43.51;100905.66;2055350;28;46377;-62
2023/06/08 01:35:31;;;;;;;;;19.25;18.50;;;;;22.95;43.44;100908.38;2056078;28;46254;-62
2023/06/08 01:37:00;;;;;;;;;17.00;17.00;;;;;22.95;43.88;100914.63;2054315;28;46757;-63
2023/06/08 01:38:20;;;;;;;;;17.60;17.40;;;;;22.94;43.88;100906.63;2060309;28;46542;-62
2023/06/08 01:39:35;;;;;;;;;18.20;18.20;;;;;22.95;43.62;100911.06;2058496;28;47166;-63
2023/06/08 01:40:42;;;;;;;;;19.80;18.00;;;;;22.95;44.02;100906.53;2060990;28;46975;-62
2023/06/08 01:41:44;;;;;;;;;19.20;19.20;;;;;22.94;43.88;100904.78;2058645;28;46275;-64
2023/06/08 01:42:48;;;;;;;;;17.80;17.80;;;;;22.94;43.85;100907.50;2058813;28;46223;-63
2023/06/08 01:43:50;;;;;;;;;17.80;17.40;;;;;22.93;43.94;100907.59;2061585;28;46585;-62
2023/06/08 01:44:57;;;;;;;;;19.20;18.00;;;;;22.90;44.00;100916.81;2063021;28;45795;-60
2023/06/08 01:46:02;;;;;;;;;19.60;19.60;;;;;22.88;44.11;100913.34;2062211;28;46280;-63
2023/06/08 01:47:05;;;;;;;;;17.60;17.60;;;;;22.87;43.77;100915.19;2062417;28;46302;-61
2023/06/08 01:48:06;;;;;;;;;17.40;17.40;;;;;22.87;44.04;100906.22;2062832;28;45774;-64
2023/06/08 01:49:09;;;;;;;;;15.00;15.00;;;;;22.87;43.96;100917.91;2063039;28;46730;-62
2023/06/08 01:50:10;;;;;;;;;18.00;18.00;;;;;22.87;44.24;100904.38;2064810;28;46399;-62
2023/06/08 01:51:13;;;;;;;;;16.20;15.80;;;;;22.89;44.00;100917.78;2071946;28;46346;-63
2023/06/08 01:52:14;;;;;;;;;20.00;19.40;;;;;22.87;43.68;100911.63;2071250;28;46659;-64
2023/06/08 01:53:16;;;;;;;;;19.50;19.25;;;;;22.87;44.09;100917.03;2091901;28;46906;-63
2023/06/08 01:54:17;;;;;;;;;17.20;17.20;;;;;22.85;44.02;100913.53;2092156;28;45231;-64
2023/06/08 01:55:19;;;;;;;;;19.25;19.25;;;;;22.85;44.32;100911.69;2093368;28;46774;-62
2023/06/08 01:56:19;;;;;;;;;20.00;19.20;;;;;22.86;43.93;100915.28;2091777;28;46506;-62
2023/06/08 01:57:19;;;;;;;;;19.75;18.75;;;;;22.87;44.10;100917.91;2095056;28;46378;-62
2023/06/08 01:58:20;;;;;;;;;22.25;19.75;;;;;22.88;44.43;100913.34;2092172;28;46721;-62
2023/06/08 01:59:20;;;;;;;;;19.75;19.50;;;;;22.87;44.17;100917.03;2092637;28;46193;-62
2023/06/08 02:00:21;;;;;;;;;21.25;21.25;;;;;22.88;44.47;100916.06;2092013;28;46901;-61
2023/06/08 02:01:22;;;;;;;;;19.20;19.20;;;;;22.87;44.43;100917.03;2093395;28;46981;-65
2023/06/08 02:02:22;;;;;;;;;22.00;20.25;;;;;22.87;44.06;100914.34;2091872;28;46585;-62
2023/06/08 02:03:22;;;;;;;;;21.25;19.25;;;;;22.86;44.30;100920.69;2085231;28;46678;-63
2023/06/08 02:04:23;;;;;;;;;21.75;20.00;;;;;22.85;44.08;100917.13;2093714;28;45806;-61
2023/06/08 02:05:23;;;;;;;;;23.00;22.00;;;;;22.85;44.20;100913.53;2093202;28;46111;-61
2023/06/08 02:06:24;;;;;;;;;20.25;18.75;;;;;22.83;44.56;100912.78;2093806;28;46184;-63
2023/06/08 02:07:24;;;;;;;;;21.25;20.75;;;;;22.82;44.22;100914.59;2092041;28;45684;-61
2023/06/08 02:08:24;;;;;;;;;18.25;17.25;;;;;22.82;44.13;100919.16;2090626;28;46071;-63
2023/06/08 02:09:25;;;;;;;;;20.00;20.00;;;;;22.79;44.83;100920.22;2093610;28;47204;-61
2023/06/08 02:10:25;;;;;;;;;18.25;18.25;;;;;22.78;44.53;100912.22;2090612;28;46380;-62
2023/06/08 02:11:26;;;;;;;;;20.75;19.25;;;;;22.77;44.93;100924.03;2095748;28;47461;-62
2023/06/08 02:12:26;;;;;;;;;19.50;19.00;;;;;22.75;44.89;100920.56;2093583;28;46408;-61
2023/06/08 02:13:26;;;;;;;;;22.75;21.50;;;;;22.73;44.87;100920.63;2089813;28;46298;-63
2023/06/08 02:14:26;;;;;;;;;25.00;22.75;;;;;22.72;44.55;100913.50;2090001;28;46917;-63
2023/06/08 02:15:27;;;;;;;;;19.00;19.00;;;;;22.71;44.79;100916.31;2092443;28;46275;-63
2023/06/08 02:16:27;;;;;;;;;19.50;19.50;;;;;22.71;44.80;100919.03;2090237;28;46540;-64
2023/06/08 02:17:33;;;;;;;;;22.50;22.25;;;;;22.70;44.68;100918.16;2093414;28;46300;-63
2023/06/08 02:18:35;;;;;;;;;21.80;20.20;;;;;22.68;44.87;100917.41;2090536;28;46321;-61
2023/06/08 02:19:36;;;;;;;;;21.60;20.60;;;;;22.67;45.25;100909.41;2091326;28;46630;-63
2023/06/08 02:20:36;;;;;;;;;20.00;19.00;;;;;22.65;45.13;100909.50;2092795;28;46288;-63
2023/06/08 02:21:36;;;;;;;;;23.75;23.00;;;;;22.64;45.47;100907.78;2088810;28;45611;-63
2023/06/08 02:22:38;;;;;;;;;20.75;20.75;;;;;22.64;45.37;100917.72;2094507;28;46346;-64
2023/06/08 02:23:39;;;;;;;;;20.00;19.80;;;;;22.64;45.13;100923.13;2091862;28;46819;-62
2023/06/08 02:24:42;;;;;;;;;22.50;22.50;;;;;22.61;45.49;100914.25;2090216;28;46556;-65
2023/06/08 02:25:42;;;;;;;;;19.60;19.60;;;;;22.59;45.52;100912.59;2091944;28;46104;-62
2023/06/08 02:26:43;;;;;;;;;21.75;20.00;;;;;22.57;45.49;100914.56;2092368;28;46083;-63
2023/06/08 02:27:43;;;;;;;;;21.50;20.50;;;;;22.52;45.51;100916.72;2092673;28;46008;-62
2023/06/08 02:28:44;;;;;;;;;22.75;20.75;;;;;22.49;45.15;100909.69;2092528;28;46692;-63
2023/06/08 02:29:44;;;;;;;;;20.75;20.75;;;;;22.46;45.60;100911.72;2090450;28;46197;-61
2023/06/08 02:30:45;;;;;;;;;18.00;18.00;;;;;22.44;45.28;100910.97;2093152;28;46264;-62
2023/06/08 02:31:45;;;;;;;;;26.00;22.50;;;;;22.42;45.32;100908.38;2089438;28;47097;-62
2023/06/08 02:32:45;;;;;;;;;21.25;21.25;;;;;22.42;45.80;100907.50;2092243;28;46152;-61
2023/06/08 02:33:46;;;;;;;;;21.75;21.75;;;;;22.42;45.69;100905.66;2093489;28;46246;-60
2023/06/08 02:34:53;;;;;;;;;23.25;22.25;;;;;22.43;45.97;100911.94;2089812;28;46885;-61
2023/06/08 02:35:53;;;;;;;;;21.40;21.40;;;;;22.44;45.88;100909.13;2099162;28;47150;-62
2023/06/08 02:36:54;;;;;;;;;19.25;18.25;;;;;22.44;45.66;100911.81;2097083;28;46272;-62
2023/06/08 02:37:54;;;;;;;;;20.50;19.50;;;;;22.43;45.65;100909.22;2091164;28;45938;-61
2023/06/08 02:38:55;;;;;;;;;26.75;24.00;;;;;22.41;45.59;100903.94;2090309;28;46054;-64
2023/06/08 02:39:55;;;;;;;;;19.25;19.25;;;;;22.41;45.95;100903.94;2090266;28;46256;-63
2023/06/08 02:40:55;;;;;;;;;21.25;21.25;;;;;22.41;46.02;100909.34;2092773;28;46679;-61
2023/06/08 02:41:56;;;;;;;;;20.50;19.50;;;;;22.42;46.08;100913.78;2092506;28;46552;-61
2023/06/08 02:42:56;;;;;;;;;25.75;24.25;;;;;22.42;46.30;100904.78;2090890;28;46870;-62
2023/06/08 02:43:57;;;;;;;;;24.25;22.00;;;;;22.42;46.36;100910.19;2095163;28;46329;-62
2023/06/08 02:44:57;;;;;;;;;22.25;20.50;;;;;22.42;45.91;100912.91;2092123;28;46517;-61
2023/06/08 02:45:57;;;;;;;;;18.25;17.25;;;;;22.43;46.33;100909.22;2092489;28;46283;-61
2023/06/08 02:46:58;;;;;;;;;21.25;21.25;;;;;22.42;46.49;100910.19;2094986;28;46551;-63
2023/06/08 02:47:58;;;;;;;;;19.50;18.50;;;;;22.42;45.93;100904.78;2096021;28;46556;-62
2023/06/08 02:49:00;;;;;;;;;22.00;20.75;;;;;22.44;46.15;100910.97;2095034;28;46612;-62
2023/06/08 02:50:00;;;;;;;;;21.20;21.20;;;;;22.45;46.12;100904.56;2095926;28;45884;-62
2023/06/08 02:51:01;;;;;;;;;21.50;21.50;;;;;22.45;46.33;100907.28;2094416;28;46079;-62
2023/06/08 02:52:01;;;;;;;;;23.00;23.00;;;;;22.44;45.90;100910.97;2086740;28;46194;-62
2023/06/08 02:53:02;;;;;;;;;22.00;20.00;;;;;22.42;45.84;100908.38;2092162;28;46644;-63
2023/06/08 02:54:03;;;;;;;;;22.20;22.20;;;;;22.42;45.98;100907.50;2091617;28;46988;-62
2023/06/08 02:55:03;;;;;;;;;24.25;22.50;;;;;22.42;46.50;100905.66;2094525;28;46575;-62
2023/06/08 02:56:04;;;;;;;;;26.25;26.25;;;;;22.41;46.33;100909.34;2090295;28;45934;-62
2023/06/08 02:57:05;;;;;;;;;27.00;27.00;;;;;22.40;45.71;100907.59;2093075;28;46787;-61
2023/06/08 02:58:06;;;;;;;;;36.00;32.00;;;;;22.39;46.13;100907.72;2088905;28;47386;-61
2023/06/08 02:59:06;;;;;;;;;33.00;30.00;;;;;22.38;46.37;100903.28;2091349;28;46441;-63
2023/06/08 03:00:08;;;;;;;;;39.50;33.00;;;;;22.38;45.97;100908.69;2083082;28;46585;-62
2023/06/08 03:01:14;;;;;;;;;40.20;35.00;;;;;22.37;46.47;100907.81;2089558;28;46319;-63
2023/06/08 03:02:15;;;;;;;;;44.60;36.60;;;;;22.36;46.12;100903.38;2092917;28;46398;-61
2023/06/08 03:03:15;;;;;;;;;44.50;37.50;;;;;22.35;46.35;100898.91;2088958;28;46649;-62
2023/06/08 03:04:18;;;;;;;;;45.00;36.75;;;;;22.35;46.40;100907.03;2088648;28;46394;-61
2023/06/08 03:05:20;;;;;;;;;52.60;42.60;;;;;22.34;46.08;100899.91;2090443;28;46546;-63
2023/06/08 03:06:21;;;;;;;;;43.40;36.00;;;;;22.32;46.47;100901.84;2084842;28;46560;-62
2023/06/08 03:07:21;;;;;;;;;50.75;42.00;;;;;22.32;46.24;100900.00;2097565;28;46317;-62
2023/06/08 03:08:21;;;;;;;;;50.00;41.75;;;;;22.32;46.54;100902.72;2103007;28;46323;-61
2023/06/08 03:09:24;;;;;;;;;48.50;41.00;;;;;22.32;45.99;100908.13;2087601;28;46763;-62
2023/06/08 03:10:26;;;;;;;;;50.20;41.80;;;;;22.32;46.25;100899.13;2087234;28;47510;-62
2023/06/08 03:11:26;;;;;;;;;50.40;41.40;;;;;22.33;46.60;100900.88;2089289;28;46593;-61
2023/06/08 03:12:26;;;;;;;;;48.25;41.00;;;;;22.33;46.20;100908.97;2090623;28;45870;-60
2023/06/08 03:13:27;;;;;;;;;49.25;41.50;;;;;22.31;46.28;100897.41;2089416;28;46014;-61
2023/06/08 03:14:30;;;;;;;;;46.25;39.50;;;;;22.30;46.08;100896.53;2089882;28;46834;-62
2023/06/08 03:15:30;;;;;;;;;46.00;38.00;;;;;22.29;46.07;100900.22;2090465;28;46113;-60
2023/06/08 03:16:31;;;;;;;;;45.25;38.00;;;;;22.29;46.10;100907.47;2097141;28;46577;-62
2023/06/08 03:17:33;;;;;;;;;45.80;37.60;;;;;22.27;46.08;100898.59;2083026;28;46568;-61
2023/06/08 03:18:34;;;;;;;;;41.40;35.00;;;;;22.25;46.66;100896.00;2085549;28;46581;-61
2023/06/08 03:19:35;;;;;;;;;30.60;28.20;;;;;22.25;46.58;100895.13;2075498;28;46970;-61
2023/06/08 03:20:36;;;;;;;;;36.40;31.60;;;;;22.23;45.83;100900.66;2071939;28;47140;-63
2023/06/08 03:21:38;;;;;;;;;26.50;26.50;;;;;22.22;46.06;100903.44;2084518;28;46162;-62
2023/06/08 03:22:41;;;;;;;;;30.80;29.80;;;;;22.19;46.26;100896.41;2084266;28;46409;-63
2023/06/08 03:23:42;;;;;;;;;27.80;25.60;;;;;22.18;46.14;100899.22;2069392;28;46395;-64
2023/06/08 03:24:42;;;;;;;;;27.80;27.80;;;;;22.16;46.42;100902.00;2070191;28;46735;-63
2023/06/08 03:25:44;;;;;;;;;25.75;25.75;;;;;22.15;46.00;100899.41;2082827;28;46868;-64
2023/06/08 03:26:44;;;;;;;;;25.60;24.80;;;;;22.14;45.98;100905.78;2083904;28;46703;-64
2023/06/08 03:27:44;;;;;;;;;25.75;25.50;;;;;22.13;46.66;100896.81;2084347;28;46188;-64
2023/06/08 03:28:45;;;;;;;;;25.00;24.00;;;;;22.12;45.95;100896.94;2080246;28;46177;-64
2023/06/08 03:29:45;;;;;;;;;21.75;21.50;;;;;22.10;46.49;100888.91;2072822;28;46264;-63
2023/06/08 03:30:46;;;;;;;;;23.75;22.25;;;;;22.12;46.09;100894.22;2074944;28;46686;-64
2023/06/08 03:31:46;;;;;;;;;19.50;18.75;;;;;22.10;46.31;100898.84;2079640;28;46714;-64
2023/06/08 03:32:48;;;;;;;;;22.25;22.25;;;;;22.09;46.57;100894.41;2082587;28;46604;-63
2023/06/08 03:33:49;;;;;;;;;20.40;20.40;;;;;22.06;46.49;100900.88;2079784;28;46848;-64
2023/06/08 03:34:49;;;;;;;;;21.25;20.00;;;;;22.05;46.06;100896.44;2078388;28;45625;-62
2023/06/08 03:35:49;;;;;;;;;23.00;23.00;;;;;22.03;46.05;100901.06;2082157;28;46179;-62
2023/06/08 03:36:50;;;;;;;;;22.25;21.50;;;;;22.00;46.39;100899.44;2079979;28;47242;-63
2023/06/08 03:37:50;;;;;;;;;19.50;19.50;;;;;21.99;46.43;100894.16;2081326;28;46486;-63
2023/06/08 03:38:50;;;;;;;;;20.75;20.75;;;;;21.99;46.28;100902.25;2074359;28;45868;-64
2023/06/08 03:39:51;;;;;;;;;23.00;21.00;;;;;21.97;46.14;100896.91;2071039;28;46791;-65
2023/06/08 03:40:51;;;;;;;;;23.00;22.50;;;;;21.96;46.46;100894.31;2074729;28;46536;-63
2023/06/08 03:41:51;;;;;;;;;22.25;22.00;;;;;21.94;46.47;100897.13;2072106;28;46712;-64
2023/06/08 03:42:52;;;;;;;;;24.75;23.50;;;;;21.92;46.38;100900.91;2082199;28;46380;-63
2023/06/08 03:43:52;;;;;;;;;19.00;19.00;;;;;21.91;46.31;100894.63;2080794;28;46490;-63
2023/06/08 03:44:52;;;;;;;;;21.00;20.75;;;;;21.92;46.40;100895.50;2079389;28;46102;-63
2023/06/08 03:45:52;;;;;;;;;21.25;21.25;;;;;21.90;46.38;100895.59;2083345;28;47036;-63
2023/06/08 03:46:53;;;;;;;;;24.00;24.00;;;;;21.88;46.71;100894.84;2081057;28;46360;-62
2023/06/08 03:47:55;;;;;;;;;20.00;19.75;;;;;21.87;46.55;100895.81;2073474;28;46255;-64
2023/06/08 03:48:55;;;;;;;;;22.00;21.40;;;;;21.85;46.91;100900.47;2078059;28;46215;-60
2023/06/08 03:49:55;;;;;;;;;22.00;20.00;;;;;21.84;46.45;100897.84;2089594;28;46230;-64
2023/06/08 03:50:56;;;;;;;;;19.75;19.75;;;;;21.83;46.60;100896.09;2091567;28;46220;-62
2023/06/08 03:51:56;;;;;;;;;23.00;22.75;;;;;21.83;46.64;100893.41;2090668;28;46251;-63
2023/06/08 03:52:56;;;;;;;;;23.50;21.75;;;;;21.82;46.72;100891.66;2089335;28;46211;-63
2023/06/08 03:53:57;;;;;;;;;20.75;20.75;;;;;21.81;46.47;100895.34;2091591;28;46671;-63
2023/06/08 03:54:58;;;;;;;;;15.00;15.00;;;;;21.79;46.95;100898.16;2090215;28;46356;-61
2023/06/08 03:55:58;;;;;;;;;19.75;19.00;;;;;21.78;47.04;100898.25;2089678;28;46342;-62
2023/06/08 03:56:58;;;;;;;;;21.50;21.50;;;;;21.79;47.01;100898.16;2092506;28;46175;-62
2023/06/08 03:57:59;;;;;;;;;22.75;21.00;;;;;21.79;46.54;100900.84;2090485;28;46625;-63
2023/06/08 03:58:59;;;;;;;;;20.25;20.25;;;;;21.79;46.69;100899.97;2092062;28;46215;-63
2023/06/08 04:00:00;;;;;;;;;21.75;20.75;;;;;21.79;47.12;100895.44;2091577;28;46601;-63
2023/06/08 04:01:00;;;;;;;;;20.50;20.50;;;;;21.79;47.06;100897.28;2088701;28;45912;-62
2023/06/08 04:02:01;;;;;;;;;21.50;21.50;;;;;21.78;46.90;100901.81;2092394;28;46239;-62
2023/06/08 04:03:01;;;;;;;;;21.00;20.50;;;;;21.77;47.22;100896.53;2092956;28;46233;-63
2023/06/08 04:04:02;;;;;;;;;28.50;26.00;;;;;21.77;46.77;100896.53;2090804;28;46228;-61
2023/06/08 04:05:03;;;;;;;;;30.60;28.40;;;;;21.76;46.76;100894.78;2089033;28;46816;-62
2023/06/08 04:06:05;;;;;;;;;26.25;24.50;;;;;21.75;46.81;100893.91;2092155;28;46491;-62
2023/06/08 04:07:06;;;;;;;;;26.40;25.20;;;;;21.74;46.60;100894.88;2087797;28;46595;-58
2023/06/08 04:08:06;;;;;;;;;27.00;25.25;;;;;21.74;47.04;100898.47;2094882;28;46543;-60
2023/06/08 04:09:06;;;;;;;;;23.25;22.00;;;;;21.73;46.91;100894.03;2093297;28;46611;-62
2023/06/08 04:10:07;;;;;;;;;20.50;20.50;;;;;21.71;46.71;100892.38;2095429;28;46394;-61
2023/06/08 04:11:08;;;;;;;;;22.50;20.00;;;;;21.70;47.27;100886.09;2092437;28;46830;-63
2023/06/08 04:12:09;;;;;;;;;23.00;22.00;;;;;21.71;46.72;100892.38;2089673;28;46452;-61
2023/06/08 04:13:09;;;;;;;;;23.75;23.75;;;;;21.71;46.75;100895.06;2095985;28;46491;-63
2023/06/08 04:14:09;;;;;;;;;26.50;25.00;;;;;21.71;46.95;100895.94;2092602;28;45570;-62
2023/06/08 04:15:10;;;;;;;;;23.00;21.50;;;;;21.70;47.26;100888.81;2095791;28;46980;-61
2023/06/08 04:16:11;;;;;;;;;22.00;20.50;;;;;21.69;47.03;100892.47;2093311;28;46405;-60
2023/06/08 04:17:12;;;;;;;;;21.00;21.00;;;;;21.68;47.27;100898.84;2092745;28;46106;-63
2023/06/08 04:18:13;;;;;;;;;24.00;23.20;;;;;21.67;47.37;100891.72;2096570;28;46427;-64
2023/06/08 04:19:13;;;;;;;;;22.25;21.00;;;;;21.66;46.83;100898.06;2089162;28;46237;-61
2023/06/08 04:20:15;;;;;;;;;24.75;23.75;;;;;21.66;47.02;100899.91;2088894;28;46373;-63
2023/06/08 04:21:15;;;;;;;;;22.00;22.00;;;;;21.64;47.02;100896.44;2095413;28;47011;-63
2023/06/08 04:22:16;;;;;;;;;22.75;22.75;;;;;21.65;47.44;100898.19;2088799;28;46544;-60
2023/06/08 04:23:16;;;;;;;;;21.75;20.75;;;;;21.65;47.14;100888.25;2088758;28;45906;-61
2023/06/08 04:24:16;;;;;;;;;20.00;20.00;;;;;21.67;47.09;100896.25;2090204;28;46820;-59
2023/06/08 04:25:17;;;;;;;;;22.50;22.00;;;;;21.67;47.22;100891.72;2087498;28;45603;-61
2023/06/08 04:26:17;;;;;;;;;25.50;23.75;;;;;21.67;47.57;100897.09;2087897;28;46362;-60
2023/06/08 04:27:19;;;;;;;;;20.75;19.75;;;;;21.67;47.62;100880.91;2087627;28;46246;-60
2023/06/08 04:28:21;;;;;;;;;19.80;19.80;;;;;21.69;47.64;100897.00;2096657;28;45316;-59
2023/06/08 04:29:22;;;;;;;;;23.80;22.80;;;;;21.70;47.71;100890.63;2093484;28;46453;-58
2023/06/08 04:30:22;;;;;;;;;23.75;23.75;;;;;21.70;47.17;100888.81;2096043;28;47007;-58
2023/06/08 04:31:22;;;;;;;;;22.25;20.25;;;;;21.71;47.12;100893.22;2096923;28;46251;-60
2023/06/08 04:32:23;;;;;;;;;21.75;21.75;;;;;21.72;47.64;100894.09;2090809;28;46563;-59
2023/06/08 04:33:24;;;;;;;;;20.75;20.75;;;;;21.74;47.13;100890.34;2088731;28;46138;-60
2023/06/08 04:34:24;;;;;;;;;21.75;21.75;;;;;21.76;47.44;100892.94;2082889;28;46812;-60
2023/06/08 04:35:25;;;;;;;;;23.75;23.00;;;;;21.77;47.60;100888.41;2086498;28;46274;-58
2023/06/08 04:36:26;;;;;;;;;20.75;20.75;;;;;21.76;47.46;100886.69;2087401;28;46560;-59
2023/06/08 04:37:27;;;;;;;;;20.00;20.00;;;;;21.76;47.50;100883.97;2091463;28;46722;-58
2023/06/08 04:38:27;;;;;;;;;17.00;15.50;;;;;21.76;47.42;100892.09;2092726;28;46804;-60
2023/06/08 04:39:27;;;;;;;;;17.50;17.25;;;;;21.77;47.67;100893.81;2094240;28;46522;-58
2023/06/08 04:40:29;;;;;;;;;25.50;23.00;;;;;21.77;47.45;100883.88;2093041;28;47054;-60
2023/06/08 04:41:31;;;;;;;;;25.00;24.80;;;;;21.77;47.15;100888.41;2093402;28;46703;-59
2023/06/08 04:42:33;;;;;;;;;25.00;23.60;;;;;21.77;47.41;100893.81;2092243;28;46968;-60